Latest Weather Observations for Port Hedland

IDW60801

Issued at 4:02 pm WST Friday 22 May 2015 (issued every 30 minutes, with the page automatically refreshed every 10 minutes)

About weather observations | Map of weather stations | Latest weather observations for WA | Other Formats
Station Details ID: 004032 Name: PORT HEDLAND AIRPORT Lat: -20.37 Lon: 118.63 Height: 6.4 m
Data from the previous 72 hours. | See also: Recent months at Port Hedland
Date/Time
WST
Temp
°C
App
Temp
°C
Dew
Point
Rel
Hum
%
Delta-T
°C
Wind Press
QNH
hPa
Press
MSL
hPa
Rain
since 9 am
mm
Dir
 
Spd
km/h
Gust
km/h
Spd
kts
Gust
kts
22/04:00pm 26.5 25.4 13.0 43 7.9 N 11 17 6 9 1014.6 - 0.0
22/03:30pm 27.0 26.2 13.9 44 7.8 N 11 15 6 8 1014.7 - 0.0
22/03:00pm 27.2 27.3 14.5 45 7.6 NNW 7 11 4 6 1014.8 1014.8 0.0
22/02:30pm 26.4 24.7 13.5 45 7.6 N 15 20 8 11 1014.7 - 0.0
22/02:00pm 27.1 25.2 12.9 41 8.3 NNE 15 19 8 10 1015.0 - 0.0
22/01:30pm 27.5 24.9 11.9 38 9.0 N 17 20 9 11 1015.2 - 0.0
22/01:00pm 28.1 25.3 13.2 39 8.8 NNE 20 24 11 13 1015.6 - 0.0
22/12:30pm 30.0 26.0 10.5 30 11.1 ENE 22 28 12 15 1015.8 - 0.0
22/12:00pm 29.5 25.2 10.7 31 10.7 ENE 24 32 13 17 1016.6 1016.6 0.0
22/11:30am 28.9 25.9 12.5 36 9.6 ENE 20 28 11 15 1016.9 - 0.0
22/11:00am 27.7 25.2 12.4 38 8.9 E 17 26 9 14 1017.5 - 0.0
22/10:30am 26.8 23.8 12.7 41 8.2 E 20 28 11 15 1017.8 - 0.0
22/10:00am 25.9 21.8 12.8 44 7.6 E 26 35 14 19 1018.0 - 0.0
22/09:30am 25.4 22.7 13.4 47 7.0 E 20 28 11 15 1018.4 - 0.0
22/09:00am 24.0 22.0 13.9 53 5.9 ESE 17 26 9 14 1018.5 1018.5 -
22/08:30am 22.5 21.9 14.7 61 4.6 SSE 11 15 6 8 1018.5 - -
22/08:00am 21.5 20.9 14.7 65 4.0 SE 11 15 6 8 1018.2 - -
22/07:30am 20.9 20.5 15.1 69 3.4 S 11 15 6 8 1018.1 - -
22/07:00am 19.8 19.9 15.4 76 2.6 SSE 9 11 5 6 1017.7 - -
22/06:30am 20.1 19.7 14.2 69 3.4 ESE 9 11 5 6 1017.4 - -
22/06:00am 20.4 20.0 14.2 67 3.6 ESE 9 11 5 6 1017.5 1017.5 -
22/05:30am 20.5 20.3 14.7 69 3.4 SE 9 11 5 6 1017.5 - -
22/05:00am 20.2 20.6 15.3 73 2.9 SE 7 9 4 5 1017.1 - -
22/04:30am 20.4 20.7 14.9 70 3.2 SE 7 9 4 5 1017.1 - -
22/04:00am 20.3 20.7 15.2 72 3.0 S 7 11 4 6 1017.1 - -
22/03:30am 20.1 20.0 15.0 72 3.0 S 9 11 5 6 1017.2 - -
22/03:00am 19.9 19.3 14.6 71 3.1 SSW 11 13 6 7 1017.2 1017.2 -
22/02:30am 20.0 19.8 13.7 67 3.6 S 7 9 4 5 1017.1 - -
22/02:00am 20.3 20.1 13.7 66 3.8 SSE 7 9 4 5 1017.4 - -
22/01:30am 20.2 19.5 13.2 64 4.0 E 9 13 5 7 1017.1 - -
22/01:00am 20.5 19.0 13.1 62 4.2 ESE 13 15 7 8 1017.4 - -
22/12:30am 20.6 19.8 13.0 61 4.3 SE 9 13 5 7 1017.7 - -
22/12:00am 20.7 19.5 12.7 60 4.5 SE 11 15 6 8 1017.8 1017.8 -
 
Date/Time
WST
Temp
°C
App
Temp
°C
Dew
Point
Rel
Hum
%
Delta-T
°C
Wind Press
QNH
hPa
Press
MSL
hPa
Rain
since 9 am
mm
Dir
 
Spd
km/h
Gust
km/h
Spd
kts
Gust
kts
21/11:30pm 21.2 19.1 12.5 57 4.9 ESE 15 22 8 12 1018.1 - -
21/11:00pm 21.5 18.9 12.0 54 5.3 ESE 17 24 9 13 1018.3 - -
21/10:30pm 21.6 18.8 11.3 52 5.7 ESE 17 22 9 12 1018.0 - -
21/10:00pm 21.7 18.2 11.0 50 5.9 E 20 28 11 15 1017.9 - -
21/09:30pm 21.8 18.1 10.2 47 6.3 E 20 28 11 15 1017.9 - -
21/09:00pm 22.4 17.8 9.8 44 6.8 ESE 24 32 13 17 1017.9 1017.9 -
21/08:30pm 22.7 18.9 9.8 44 7.0 ESE 20 30 11 16 1017.9 - -
21/08:00pm 22.9 19.2 10.3 45 6.9 ESE 20 28 11 15 1017.7 - -
21/07:30pm 23.0 20.5 11.1 47 6.6 ESE 15 24 8 13 1017.6 - -
21/07:00pm 23.6 20.3 11.0 45 7.0 SE 19 24 10 13 1017.4 - -
21/06:30pm 24.2 20.6 10.0 40 7.8 ESE 19 22 10 12 1016.9 - -
21/06:00pm 24.7 22.0 10.2 40 8.0 ESE 15 20 8 11 1016.7 1016.7 -
21/05:30pm 25.1 21.7 10.5 39 8.1 ESE 19 22 10 12 1016.4 - -
21/05:00pm 24.5 24.8 15.9 58 5.2 E 9 13 5 7 1016.4 - -
21/04:30pm 24.5 24.7 15.7 58 5.3 NE 9 13 5 7 1016.4 - -
21/04:00pm 25.9 26.1 13.2 45 7.4 N 4 9 2 5 1016.4 - -
21/03:30pm 25.9 25.1 12.8 44 7.6 N 9 13 5 7 1016.4 - -
21/03:00pm 26.5 25.2 12.5 41 8.1 NNE 11 13 6 7 1015.9 1015.9 0.0
21/02:30pm 27.1 25.3 11.0 36 9.1 NNE 11 13 6 7 1015.8 - 0.0
21/02:00pm 26.9 25.6 11.2 37 8.9 NE 9 13 5 7 1016.1 - 0.0
21/01:00pm 28.2 24.0 5.7 24 11.7 E 17 20 9 11 1016.3 - 0.0
21/12:30pm 27.7 24.1 8.4 29 10.5 NE 17 20 9 11 1016.7 - 0.0
21/12:00pm 28.8 24.5 7.1 25 11.6 NE 19 22 10 12 1017.1 1017.1 0.0
21/11:30am 28.4 24.0 6.4 25 11.6 ENE 19 26 10 14 1017.5 - 0.0
21/11:00am 27.7 22.3 6.3 25 11.2 ENE 24 32 13 17 1017.8 - 0.0
21/10:30am 26.6 20.9 6.5 27 10.5 E 26 33 14 18 1017.9 - 0.0
21/10:00am 27.1 20.9 6.2 26 10.9 E 28 35 15 19 1018.1 - 0.0
21/09:30am 25.3 19.1 6.3 29 9.8 E 28 33 15 18 1018.2 - 0.0
21/09:00am 24.9 19.6 6.8 31 9.4 E 24 32 13 17 1017.9 1017.9 0.0
21/08:30am 24.1 19.2 6.7 32 9.0 E 22 30 12 16 1017.7 - 0.0
21/08:00am 23.5 19.7 7.4 35 8.4 E 17 24 9 13 1017.2 - 0.0
21/07:30am 22.0 20.0 8.8 43 7.0 SE 9 13 5 7 1017.2 - 0.0
21/07:00am 21.3 19.1 9.5 47 6.3 SSE 11 13 6 7 1016.7 - 0.0
21/06:30am 21.8 19.1 9.0 44 6.8 SE 13 15 7 8 1016.1 - 0.0
21/06:00am 21.8 19.6 9.3 45 6.7 SE 11 15 6 8 1016.0 1016.0 0.0
21/05:30am 20.9 19.1 10.8 52 5.5 SSE 11 13 6 7 1016.0 - 0.0
21/05:00am 21.6 18.7 9.7 46 6.4 ESE 15 20 8 11 1015.6 - 0.0
21/04:30am 21.2 19.8 12.3 57 5.0 SSE 11 15 6 8 1015.7 - 0.0
21/04:00am 21.3 20.2 13.1 59 4.7 S 11 15 6 8 1016.0 - 0.0
21/03:30am 21.0 19.3 13.5 62 4.3 SSE 15 19 8 10 1015.9 - 0.0
21/03:00am 21.1 19.8 13.6 62 4.3 S 13 17 7 9 1015.9 1015.9 0.0
21/02:30am 21.2 20.0 14.1 64 4.1 S 13 17 7 9 1015.9 - 0.0
21/02:00am 21.2 20.5 14.3 64 4.0 S 11 15 6 8 1016.0 - 0.0
21/01:30am 21.1 20.4 14.4 65 3.9 S 11 15 6 8 1016.3 - 0.0
21/01:00am 21.1 20.4 14.4 65 3.9 S 11 15 6 8 1016.5 - 0.0
21/12:30am 21.3 20.7 14.5 65 4.0 S 11 15 6 8 1016.4 - 0.0
21/12:00am 21.8 21.5 14.5 63 4.3 S 9 11 5 6 1016.8 1016.8 0.0
 
Date/Time
WST
Temp
°C
App
Temp
°C
Dew
Point
Rel
Hum
%
Delta-T
°C
Wind Press
QNH
hPa
Press
MSL
hPa
Rain
since 9 am
mm
Dir
 
Spd
km/h
Gust
km/h
Spd
kts
Gust
kts
20/11:30pm 21.2 21.0 14.7 66 3.8 SSW 9 9 5 5 1017.0 - 0.0
20/11:00pm 22.2 21.5 14.3 61 4.6 S 11 13 6 7 1017.0 - 0.0
20/10:30pm 21.4 21.2 14.8 66 3.9 S 9 11 5 6 1017.0 - 0.0
20/10:00pm 21.9 22.1 14.8 64 4.2 SSW 7 7 4 4 1017.1 - 0.0
20/09:30pm 21.9 23.6 15.2 65 4.0 CALM 0 0 0 0 1017.2 - 0.0
20/09:00pm 22.5 23.9 14.5 60 4.7 CALM 0 0 0 0 1017.3 1017.3 0.0
20/08:30pm 23.0 25.0 15.9 64 4.3 CALM 0 0 0 0 1017.1 - 0.0
20/08:00pm 23.1 23.2 15.6 62 4.5 S 9 9 5 5 1017.0 - 0.0
20/07:30pm 22.5 25.0 17.3 72 3.2 CALM 0 0 0 0 1016.6 - 0.0
20/07:00pm 22.7 25.0 17.7 73 3.1 N 2 6 1 3 1016.5 - 0.0
20/06:30pm 22.9 24.1 16.9 69 3.7 N 6 7 3 4 1016.2 - 0.0
20/06:00pm 23.4 24.0 15.8 62 4.6 N 7 11 4 6 1015.8 1015.8 0.0
20/05:30pm 24.1 24.1 15.1 57 5.4 N 9 13 5 7 1015.5 - 0.0
20/05:00pm 25.2 23.7 14.2 50 6.5 N 15 20 8 11 1015.1 - 0.0
20/04:30pm 25.8 22.7 11.5 40 8.1 N 19 20 10 11 1014.8 - 0.0
20/04:00pm 26.7 23.8 12.3 40 8.3 N 19 24 10 13 1014.8 - 0.0
20/03:30pm 27.0 24.0 13.6 43 7.9 N 22 30 12 16 1014.9 - 0.0
20/03:00pm 27.0 24.2 12.5 40 8.4 NNW 19 24 10 13 1015.0 1015.0 0.0
20/02:30pm 27.9 25.0 12.4 38 9.0 N 19 24 10 13 1014.9 - 0.0
20/02:00pm 28.2 24.8 10.5 33 10.0 N 19 26 10 14 1015.2 - 0.0
20/01:30pm 29.5 24.7 7.5 25 11.9 N 22 26 12 14 1014.9 - 0.0
20/01:00pm 30.1 25.5 8.0 25 12.1 NNE 22 28 12 15 1014.8 - 0.0
20/12:30pm 29.1 24.3 8.8 28 11.2 NNE 24 30 13 16 1015.3 - 0.0
20/12:00pm 30.3 25.5 7.4 23 12.4 ENE 22 28 12 15 1015.8 1015.8 0.0
20/11:30am 29.6 24.4 7.1 24 12.1 E 24 32 13 17 1016.1 - 0.0
20/11:00am 29.4 24.0 6.4 23 12.2 E 24 32 13 17 1016.5 - 0.0
20/10:30am 28.3 23.0 4.9 22 12.0 E 22 33 12 18 1017.1 - 0.0
20/10:00am 27.3 21.6 5.0 24 11.4 E 24 32 13 17 1017.5 - 0.0
20/09:30am 26.3 20.8 6.0 27 10.5 ESE 24 32 13 17 1017.6 - 0.0
20/09:00am 25.8 19.0 5.1 26 10.5 E 30 39 16 21 1017.2 1017.2 0.0
20/08:30am 25.0 18.9 6.4 30 9.6 E 28 37 15 20 1016.6 - 0.0
20/08:00am 23.0 19.8 11.1 47 6.6 ESE 19 26 10 14 1016.5 - 0.0
20/07:30am 21.6 20.2 14.6 64 4.1 ESE 15 20 8 11 1016.3 - 0.0
20/07:00am 21.3 23.1 20.4 95 0.6 SE 11 13 6 7 1016.2 - 0.0
20/06:30am 20.7 22.4 20.2 97 0.3 S 11 13 6 7 1015.9 - 0.0
20/06:00am 20.5 22.5 20.0 97 0.3 S 9 11 5 6 1015.5 1015.5 0.0
20/05:30am 20.1 21.5 19.5 96 0.4 SSE 11 13 6 7 1015.3 - 0.0
20/05:00am 20.2 22.1 19.7 97 0.3 S 9 11 5 6 1014.9 - 0.0
20/04:30am 20.3 22.6 19.8 97 0.3 S 7 9 4 5 1014.8 - 0.0
20/04:00am 20.3 22.6 19.8 97 0.3 S 7 9 4 5 1014.8 - 0.0
20/03:30am 20.2 22.1 19.7 97 0.3 SSW 9 9 5 5 1014.9 - 0.0
20/03:00am 20.6 22.3 20.1 97 0.3 S 11 15 6 8 1014.8 1014.8 0.0
20/02:30am 20.4 22.0 19.9 97 0.3 SSW 11 13 6 7 1015.1 - 0.0
20/02:00am 20.7 23.1 20.1 96 0.4 S 7 9 4 5 1015.4 - 0.0
20/01:30am 20.8 23.3 20.2 96 0.4 S 7 9 4 5 1015.6 - 0.0
20/01:00am 20.7 23.2 20.2 97 0.3 S 7 9 4 5 1015.5 - 0.0
20/12:30am 20.7 24.5 20.1 96 0.4 CALM 0 0 0 0 1015.4 - 0.0
20/12:00am 21.0 24.2 20.4 96 0.4 WSW 4 6 2 3 1015.5 1015.5 0.0
 
Date/Time
WST
Temp
°C
App
Temp
°C
Dew
Point
Rel
Hum
%
Delta-T
°C
Wind Press
QNH
hPa
Press
MSL
hPa
Rain
since 9 am
mm
Dir
 
Spd
km/h
Gust
km/h
Spd
kts
Gust
kts
19/11:30pm 20.9 23.6 20.3 96 0.4 WSW 6 7 3 4 1015.6 - 0.0
19/11:00pm 21.2 23.4 20.4 95 0.5 WSW 9 11 5 6 1015.7 - 0.0
19/10:30pm 21.6 24.3 20.7 95 0.6 WSW 7 9 4 5 1015.7 - 0.0
19/10:00pm 21.7 23.7 20.8 95 0.6 W 11 13 6 7 1015.7 - 0.0
19/09:30pm 21.4 23.6 20.5 95 0.6 WNW 9 11 5 6 1015.5 - 0.0
19/09:00pm 21.7 24.0 20.6 93 0.7 NW 9 11 5 6 1015.3 1015.3 0.0
19/08:30pm 21.9 24.1 20.5 92 0.9 NW 9 9 5 5 1015.5 - 0.0
19/08:00pm 22.2 24.1 20.5 90 1.1 WNW 11 11 6 6 1015.4 - 0.0
19/07:30pm 22.7 24.3 20.7 88 1.3 W 13 13 7 7 1015.5 - 0.0
19/07:00pm 23.1 25.3 21.1 88 1.3 NW 11 13 6 7 1015.3 - 0.0
19/06:30pm 23.7 25.4 20.9 84 1.8 WNW 13 17 7 9 1015.0 - 0.0
19/06:00pm 24.3 25.4 20.5 79 2.5 WNW 15 20 8 11 1014.8 1014.8 0.0
19/05:30pm 24.8 25.1 19.7 73 3.3 WNW 17 20 9 11 1014.7 - 0.0
19/05:00pm 25.4 25.5 19.2 68 4.0 NW 17 20 9 11 1014.5 - 0.0
19/04:30pm 25.9 26.1 19.4 67 4.2 NW 17 20 9 11 1014.1 - 0.0

Other Formats:

Comma delimited format used in spreadsheet applications
http://www.bom.gov.au/fwo/IDW60801/IDW60801.94312.axf

JavaScript Object Notation format (JSON) in row-major order
http://www.bom.gov.au/fwo/IDW60801/IDW60801.94312.json